createdAt,value
2018-12-26T00:01:27.374Z,62.71
2018-12-26T00:03:55.340Z,61.39
2018-12-26T00:06:23.205Z,62.81
2018-12-26T00:08:51.171Z,62.06
2018-12-26T00:11:19.098Z,62.10
2018-12-26T00:13:46.956Z,64.66
2018-12-26T00:16:14.878Z,63.87
2018-12-26T00:18:42.846Z,63.11
2018-12-26T00:21:10.889Z,63.04
2018-12-26T00:23:38.822Z,64.88
2018-12-26T00:26:06.717Z,66.32
2018-12-26T00:28:34.576Z,65.49
2018-12-26T00:31:02.468Z,64.52
2018-12-26T00:33:30.393Z,64.51
2018-12-26T00:35:58.234Z,64.71
2018-12-26T00:38:26.127Z,70.59
2018-12-26T00:40:54.163Z,65.27
2018-12-26T00:43:22.045Z,66.23
2018-12-26T00:45:49.993Z,65.90
2018-12-26T00:48:17.998Z,65.34
2018-12-26T00:51:05.201Z,65.08
2018-12-26T00:53:33.200Z,65.08
2018-12-26T00:56:01.158Z,66.83
2018-12-26T00:58:29.032Z,65.99
2018-12-26T01:00:57.019Z,67.07
2018-12-26T01:03:24.994Z,67.34
2018-12-26T01:05:52.899Z,67.12
2018-12-26T01:08:20.737Z,68.37
2018-12-26T01:10:48.672Z,67.79
2018-12-26T01:13:16.683Z,69.64
2018-12-26T01:15:44.578Z,67.62
2018-12-26T01:18:12.490Z,67.72
2018-12-26T01:20:40.403Z,68.13
2018-12-26T01:23:08.294Z,67.82
2018-12-26T01:25:36.208Z,67.73
2018-12-26T01:28:04.124Z,66.19
2018-12-26T01:30:32.033Z,67.04
2018-12-26T01:32:59.965Z,67.46
2018-12-26T01:35:27.891Z,67.04
2018-12-26T01:37:55.839Z,67.90
2018-12-26T01:40:23.757Z,69.20
2018-12-26T01:42:51.678Z,68.79
2018-12-26T01:45:19.620Z,69.21
2018-12-26T01:47:47.583Z,70.48
2018-12-26T01:50:15.612Z,69.41
2018-12-26T01:52:55.949Z,70.92
2018-12-26T01:55:35.620Z,71.24
2018-12-26T01:58:16.089Z,70.15
2018-12-26T02:00:56.400Z,70.09
2018-12-26T02:03:24.417Z,70.09
2018-12-26T02:05:52.296Z,69.06
2018-12-26T02:08:20.214Z,69.31
2018-12-26T02:10:48.178Z,69.40
2018-12-26T02:13:16.027Z,69.88
2018-12-26T02:15:43.975Z,69.69
2018-12-26T02:18:11.859Z,69.62
2018-12-26T02:20:39.718Z,69.84
2018-12-26T02:23:07.622Z,69.43
2018-12-26T02:25:35.672Z,70.87
2018-12-26T02:28:03.619Z,70.33
2018-12-26T02:30:31.482Z,70.01
2018-12-26T02:32:59.371Z,70.01
2018-12-26T02:35:27.320Z,69.83
2018-12-26T02:37:55.165Z,69.91
2018-12-26T02:40:23.093Z,70.34
2018-12-26T02:43:10.234Z,69.14
2018-12-26T02:45:38.281Z,69.14
2018-12-26T02:48:06.174Z,70.40
2018-12-26T02:50:34.043Z,69.56
2018-12-26T02:53:02.107Z,70.37
2018-12-26T02:55:30.047Z,70.50
2018-12-26T02:57:57.977Z,70.02
2018-12-26T03:00:25.933Z,69.98
2018-12-26T03:02:53.871Z,70.61
2018-12-26T03:05:21.807Z,71.29
2018-12-26T03:07:49.684Z,69.39
2018-12-26T03:10:17.578Z,69.48
2018-12-26T03:12:45.540Z,70.08
2018-12-26T03:15:13.393Z,70.18
2018-12-26T03:17:41.307Z,72.36
2018-12-26T03:20:09.241Z,70.72
2018-12-26T03:22:56.470Z,71.27
2018-12-26T03:25:24.534Z,71.27
2018-12-26T03:27:52.591Z,70.62
2018-12-26T03:30:20.525Z,71.28
2018-12-26T03:32:48.496Z,70.33
2018-12-26T03:35:16.403Z,70.33
2018-12-26T03:37:44.431Z,70.97
2018-12-26T03:40:12.485Z,69.98
2018-12-26T03:43:20.792Z,71.52
2018-12-26T03:45:59.859Z,72.58
2018-12-26T03:51:29.081Z,72.17
2018-12-26T03:53:57.179Z,71.22
2018-12-26T03:56:46.172Z,71.01
2018-12-26T03:59:14.199Z,70.80
2018-12-26T04:01:42.107Z,70.83
2018-12-26T04:04:29.271Z,72.46
2018-12-26T04:06:57.519Z,72.46
2018-12-26T04:09:25.504Z,73.00
2018-12-26T04:11:53.571Z,70.90
2018-12-26T04:14:21.610Z,74.06
2018-12-26T04:16:49.802Z,72.17
2018-12-26T04:19:17.780Z,70.63
2018-12-26T04:21:45.743Z,69.54
2018-12-26T04:24:13.841Z,70.09
2018-12-26T04:26:41.885Z,69.54
2018-12-26T04:29:09.820Z,72.50
2018-12-26T04:31:57.028Z,68.46
2018-12-26T04:34:25.134Z,68.46
2018-12-26T04:36:53.006Z,68.93
2018-12-26T04:39:20.974Z,69.79
2018-12-26T04:41:48.873Z,69.68
2018-12-26T04:44:16.823Z,69.71
2018-12-26T04:46:44.752Z,69.38
2018-12-26T04:49:12.757Z,70.13
2018-12-26T04:51:40.723Z,70.67
2018-12-26T04:54:08.810Z,71.25
2018-12-26T04:56:37.052Z,68.66
2018-12-26T04:59:04.989Z,70.88
2018-12-26T05:01:32.903Z,69.77
2018-12-26T05:04:00.891Z,68.98
2018-12-26T05:06:28.811Z,68.90
2018-12-26T05:08:56.826Z,67.93
2018-12-26T05:11:24.772Z,69.65
2018-12-26T05:13:52.720Z,70.41
2018-12-26T05:16:20.730Z,68.76
2018-12-26T05:18:48.747Z,69.16
2018-12-26T05:21:16.765Z,71.62
2018-12-26T05:24:03.955Z,69.41
2018-12-26T05:26:31.919Z,69.41
2018-12-26T05:28:59.823Z,70.84
2018-12-26T05:31:27.776Z,69.75
2018-12-26T05:33:55.706Z,69.65
2018-12-26T05:36:23.677Z,68.90
2018-12-26T05:38:51.615Z,71.72
2018-12-26T05:41:19.470Z,68.85
2018-12-26T05:43:47.355Z,69.99
2018-12-26T05:46:15.279Z,68.79
2018-12-26T05:48:43.166Z,68.28
2018-12-26T05:51:11.076Z,69.29
2018-12-26T05:53:39.035Z,69.95
2018-12-26T05:56:07.074Z,71.44
2018-12-26T05:58:35.012Z,68.27
2018-12-26T06:01:02.949Z,68.83
2018-12-26T06:03:30.922Z,68.47
2018-12-26T06:05:58.872Z,69.94
2018-12-26T06:08:26.802Z,69.90
2018-12-26T06:10:54.632Z,70.82
2018-12-26T06:13:22.544Z,69.10
2018-12-26T06:15:50.577Z,69.23
2018-12-26T06:18:18.380Z,69.54
2018-12-26T06:20:46.294Z,73.43
2018-12-26T06:23:15.128Z,69.94
2018-12-26T06:25:43.075Z,68.85
2018-12-26T06:28:11.329Z,68.91
2018-12-26T06:30:39.395Z,68.61
2018-12-26T06:33:07.528Z,69.18
2018-12-26T06:35:35.488Z,69.07
2018-12-26T06:38:03.488Z,69.14
2018-12-26T06:40:31.422Z,69.82
2018-12-26T06:42:59.422Z,69.13
2018-12-26T06:45:27.375Z,69.54
2018-12-26T06:47:55.254Z,70.90
2018-12-26T06:50:23.199Z,69.19
2018-12-26T06:52:51.402Z,68.06
2018-12-26T06:55:19.401Z,69.43
2018-12-26T06:57:47.386Z,68.65
2018-12-26T07:00:15.464Z,70.42
2018-12-26T07:02:43.361Z,67.50
2018-12-26T07:05:11.229Z,67.44
2018-12-26T07:07:39.248Z,68.85
2018-12-26T07:10:07.338Z,69.63
2018-12-26T07:12:35.169Z,69.04
2018-12-26T07:15:03.197Z,70.37
2018-12-26T07:17:31.109Z,68.76
2018-12-26T07:19:59.011Z,67.62
2018-12-26T07:22:26.973Z,68.59
2018-12-26T07:24:54.974Z,66.97
2018-12-26T07:27:22.992Z,67.10
2018-12-26T07:29:50.902Z,66.74
2018-12-26T07:32:18.837Z,67.41
2018-12-26T07:34:46.779Z,66.65
2018-12-26T07:37:14.745Z,69.86
2018-12-26T07:39:42.596Z,70.09
2018-12-26T07:42:10.536Z,69.83
2018-12-26T07:44:38.541Z,65.51
2018-12-26T07:47:06.441Z,67.62
2018-12-26T07:49:34.348Z,64.73
2018-12-26T07:52:02.260Z,65.01
2018-12-26T07:54:30.181Z,67.57
2018-12-26T07:56:58.129Z,65.89
2018-12-26T07:59:26.145Z,68.19
2018-12-26T08:01:54.070Z,66.43
2018-12-26T08:04:22.007Z,66.57
2018-12-26T08:06:49.947Z,65.69
2018-12-26T08:09:17.829Z,66.76
2018-12-26T08:11:45.750Z,65.61
2018-12-26T08:14:13.655Z,65.82
2018-12-26T08:16:41.553Z,65.51
2018-12-26T08:19:09.466Z,65.66
2018-12-26T08:21:37.397Z,65.52
2018-12-26T08:24:05.260Z,65.80
2018-12-26T08:26:33.282Z,66.03
2018-12-26T08:29:01.314Z,64.89
2018-12-26T08:31:29.328Z,64.55
2018-12-26T08:33:57.218Z,67.04
2018-12-26T08:36:25.186Z,65.41
2018-12-26T08:38:53.159Z,63.49
2018-12-26T08:41:21.424Z,63.57
2018-12-26T08:43:49.368Z,63.22
2018-12-26T08:46:17.329Z,62.31
2018-12-26T08:48:45.428Z,62.00
2018-12-26T08:51:13.463Z,64.61
2018-12-26T08:53:42.357Z,61.00
2018-12-26T08:56:32.401Z,63.99
2018-12-26T08:59:00.495Z,61.40
2018-12-26T09:01:28.616Z,62.16
2018-12-26T09:04:17.737Z,62.30
2018-12-26T09:06:50.392Z,62.69
2018-12-26T09:09:21.067Z,62.61
2018-12-26T09:11:55.524Z,63.19
2018-12-26T09:14:24.898Z,61.49
2018-12-26T09:16:57.254Z,60.10
2018-12-26T09:19:25.933Z,59.26
2018-12-26T09:21:54.443Z,60.08
2018-12-26T09:24:26.255Z,62.06
2018-12-26T09:26:57.346Z,63.61
2018-12-26T09:29:25.384Z,60.80
2018-12-26T09:33:00.918Z,59.85
2018-12-26T09:35:28.490Z,59.63
2018-12-26T09:37:56.168Z,60.86
2018-12-26T09:40:23.661Z,60.91
2018-12-26T09:42:51.112Z,61.20
2018-12-26T09:45:18.557Z,61.17
2018-12-26T09:47:46.067Z,62.35
2018-12-26T09:50:13.669Z,62.29
2018-12-26T09:52:41.242Z,62.70
2018-12-26T09:55:08.725Z,62.72
2018-12-26T09:57:36.180Z,63.53
2018-12-26T10:00:15.137Z,64.09
2018-12-26T10:02:42.656Z,63.49
2018-12-26T10:05:10.174Z,65.02
2018-12-26T10:07:38.054Z,62.83
2018-12-26T10:10:06.489Z,62.06
2018-12-26T10:12:34.127Z,62.43
2018-12-26T10:15:01.506Z,61.49
2018-12-26T10:17:35.749Z,61.82
2018-12-26T10:20:24.712Z,61.93
2018-12-26T10:22:52.393Z,63.28
2018-12-26T10:25:20.119Z,63.33
2018-12-26T10:33:06.672Z,65.32
2018-12-26T10:35:34.127Z,65.15
2018-12-26T10:38:01.713Z,63.61
2018-12-26T10:40:29.180Z,63.47
2018-12-26T10:42:56.591Z,63.88
2018-12-26T10:45:24.081Z,62.95
2018-12-26T10:47:52.121Z,62.12
2018-12-26T10:50:19.494Z,61.57
2018-12-26T10:52:46.964Z,61.95
2018-12-26T10:55:14.404Z,61.60
2018-12-26T10:57:42.138Z,59.08
2018-12-26T11:00:11.700Z,59.77
2018-12-26T11:02:39.273Z,59.38
2018-12-26T11:05:07.268Z,58.90
2018-12-26T11:07:34.780Z,58.88
2018-12-26T11:10:02.297Z,59.05
2018-12-26T11:12:29.823Z,58.85
2018-12-26T11:14:57.477Z,59.01
2018-12-26T11:17:25.084Z,57.69
2018-12-26T11:19:54.985Z,58.55
2018-12-26T11:22:22.460Z,58.82
2018-12-26T11:24:49.993Z,58.09
2018-12-26T11:27:17.578Z,58.24
2018-12-26T11:29:45.014Z,58.84
2018-12-26T11:32:12.497Z,58.96
2018-12-26T11:34:40.085Z,60.18
2018-12-26T11:37:07.615Z,58.65
2018-12-26T11:39:35.234Z,58.79
2018-12-26T11:42:02.756Z,58.57
2018-12-26T11:44:30.133Z,59.50
2018-12-26T11:46:57.646Z,59.20
2018-12-26T11:49:25.109Z,59.29
2018-12-26T11:51:52.514Z,58.72
2018-12-26T11:54:19.951Z,58.75
2018-12-26T11:56:47.449Z,59.77
2018-12-26T11:59:14.827Z,59.34
2018-12-26T12:01:42.419Z,58.98
2018-12-26T12:04:10.129Z,59.53
2018-12-26T12:06:37.587Z,59.41
2018-12-26T12:09:06.552Z,59.95
2018-12-26T12:11:34.214Z,59.47
2018-12-26T12:14:01.822Z,59.64
2018-12-26T12:16:29.914Z,60.33
2018-12-26T12:18:57.689Z,60.61
2018-12-26T12:21:25.180Z,61.25
2018-12-26T12:23:52.724Z,62.03
2018-12-26T12:26:20.205Z,62.34
2018-12-26T12:28:47.966Z,61.31
2018-12-26T12:33:55.485Z,61.67
2018-12-26T12:36:23.021Z,61.29
2018-12-26T12:38:50.668Z,60.96
2018-12-26T12:41:18.377Z,60.87
2018-12-26T12:43:45.848Z,61.68
2018-12-26T12:46:13.464Z,63.46
2018-12-26T12:48:40.971Z,62.71
2018-12-26T12:51:08.489Z,62.84
2018-12-26T12:53:36.227Z,64.76
2018-12-26T12:56:11.770Z,64.82
2018-12-26T12:58:33.420Z,63.86
2018-12-26T13:01:01.147Z,64.05
2018-12-26T13:03:28.792Z,64.24
2018-12-26T13:05:56.409Z,64.14
2018-12-26T13:08:23.941Z,64.02
2018-12-26T13:10:51.473Z,63.73
2018-12-26T13:13:18.952Z,64.12
2018-12-26T13:15:46.454Z,64.36
2018-12-26T13:18:14.049Z,64.68
2018-12-26T13:20:41.612Z,64.76
2018-12-26T13:23:09.117Z,65.16
2018-12-26T13:25:36.593Z,64.67
2018-12-26T13:28:04.213Z,65.43
2018-12-26T13:30:33.005Z,64.71
2018-12-26T13:33:00.489Z,64.20
2018-12-26T13:35:27.960Z,64.17
2018-12-26T13:37:55.990Z,64.48
2018-12-26T13:40:23.556Z,65.33
2018-12-26T13:42:51.034Z,65.89
2018-12-26T13:45:18.511Z,66.39
2018-12-26T13:47:46.094Z,66.89
2018-12-26T13:50:13.463Z,67.06
2018-12-26T13:52:41.047Z,66.76
2018-12-26T13:55:08.554Z,66.95
2018-12-26T13:57:36.087Z,68.71
2018-12-26T14:02:44.920Z,67.81
2018-12-26T14:05:12.351Z,67.44
2018-12-26T14:07:39.922Z,67.50
2018-12-26T14:10:09.118Z,68.85
2018-12-26T14:12:36.573Z,68.09
2018-12-26T14:15:44.653Z,67.32
2018-12-26T14:18:12.200Z,69.44
2018-12-26T14:20:39.712Z,68.31
2018-12-26T14:23:07.169Z,67.72
2018-12-26T14:25:34.655Z,68.19
2018-12-26T14:28:02.192Z,68.82
2018-12-26T14:30:29.648Z,69.29
2018-12-26T14:32:57.113Z,70.28
2018-12-26T14:35:24.611Z,69.21
2018-12-26T14:37:52.073Z,68.99
2018-12-26T14:40:19.504Z,69.95
2018-12-26T14:42:46.968Z,70.00
2018-12-26T14:45:14.413Z,70.49
2018-12-26T14:47:41.974Z,69.63
2018-12-26T14:50:09.520Z,70.14
2018-12-26T14:52:37.006Z,70.30
2018-12-26T14:55:04.713Z,71.19
2018-12-26T14:57:32.198Z,70.90
2018-12-26T14:59:59.842Z,70.82
2018-12-26T15:02:27.692Z,69.86
2018-12-26T15:04:55.341Z,70.76
2018-12-26T15:07:23.287Z,71.27
2018-12-26T15:09:50.869Z,71.42
2018-12-26T15:12:18.316Z,72.03
2018-12-26T15:14:45.852Z,70.29
2018-12-26T15:17:13.254Z,71.02
2018-12-26T15:19:40.856Z,71.48
2018-12-26T15:22:08.416Z,71.01
2018-12-26T15:24:35.930Z,70.90
2018-12-26T15:27:03.384Z,70.60
2018-12-26T15:29:30.834Z,71.04
2018-12-26T15:31:58.316Z,70.48
2018-12-26T15:34:25.784Z,71.02
2018-12-26T15:36:53.305Z,70.79
2018-12-26T15:39:20.969Z,69.40
2018-12-26T15:41:48.447Z,69.84
2018-12-26T15:44:16.044Z,69.40
2018-12-26T15:46:43.574Z,69.96
2018-12-26T15:49:10.984Z,69.36
2018-12-26T15:51:38.523Z,68.63
2018-12-26T15:54:06.037Z,68.22
2018-12-26T15:56:58.720Z,68.25
2018-12-26T16:02:05.763Z,69.28
2018-12-26T16:04:33.253Z,68.51
2018-12-26T16:07:01.716Z,69.04
2018-12-26T16:09:29.403Z,68.66
2018-12-26T16:11:56.900Z,70.90
2018-12-26T16:14:24.312Z,70.10
2018-12-26T16:16:51.736Z,68.78
2018-12-26T16:19:19.325Z,67.64
2018-12-26T16:21:46.794Z,67.71
2018-12-26T16:24:14.395Z,68.02
2018-12-26T16:26:41.986Z,66.75
2018-12-26T16:29:09.470Z,67.08
2018-12-26T16:31:36.966Z,67.50
2018-12-26T16:34:04.501Z,67.21
2018-12-26T16:36:32.028Z,67.68
2018-12-26T16:38:59.502Z,67.23
2018-12-26T16:41:26.957Z,67.84
2018-12-26T16:43:54.390Z,66.22
2018-12-26T16:46:21.984Z,66.49
2018-12-26T16:48:49.451Z,65.74
2018-12-26T16:51:16.931Z,66.82
2018-12-26T16:53:44.423Z,64.91
2018-12-26T16:56:11.934Z,64.34
2018-12-26T16:58:39.465Z,63.97
2018-12-26T17:01:06.953Z,64.50
2018-12-26T17:03:34.561Z,64.01
2018-12-26T17:06:02.038Z,64.72
2018-12-26T17:08:29.599Z,66.59
2018-12-26T17:10:57.132Z,64.11
2018-12-26T17:13:24.654Z,62.75
2018-12-26T17:15:52.082Z,63.01
2018-12-26T17:18:19.594Z,62.99
2018-12-26T17:20:47.027Z,62.40
2018-12-26T17:23:14.470Z,62.69
2018-12-26T17:25:42.346Z,63.26
2018-12-26T17:28:09.889Z,62.84
2018-12-26T17:30:37.419Z,64.27
2018-12-26T17:33:04.922Z,64.98
2018-12-26T17:35:32.301Z,62.98
2018-12-26T17:37:59.917Z,62.34
2018-12-26T17:40:27.378Z,62.13
2018-12-26T17:42:54.849Z,62.94
2018-12-26T17:45:23.251Z,63.92
2018-12-26T17:47:50.810Z,63.97
2018-12-26T17:50:59.252Z,64.75
2018-12-26T17:53:49.039Z,65.97
2018-12-26T17:56:28.237Z,65.71
2018-12-26T17:59:11.238Z,64.60
2018-12-26T18:01:47.938Z,64.94
2018-12-26T18:04:15.402Z,65.71
2018-12-26T18:06:42.959Z,65.64
2018-12-26T18:09:10.448Z,65.48
2018-12-26T18:11:37.937Z,66.45
2018-12-26T18:14:05.674Z,66.23
2018-12-26T18:16:33.115Z,64.71
2018-12-26T18:19:00.594Z,64.82
2018-12-26T18:21:28.088Z,65.04
2018-12-26T18:23:55.617Z,65.54
2018-12-26T18:26:23.589Z,64.36
2018-12-26T18:28:51.044Z,64.79
2018-12-26T18:31:21.944Z,64.16
2018-12-26T18:33:47.872Z,63.94
2018-12-26T18:36:15.364Z,65.03
2018-12-26T18:38:42.817Z,63.06
2018-12-26T18:41:10.355Z,63.74
2018-12-26T18:43:37.900Z,63.68
2018-12-26T18:46:05.337Z,63.89
2018-12-26T18:48:33.045Z,63.30
2018-12-26T18:51:00.523Z,63.83
2018-12-26T18:53:28.265Z,65.76
2018-12-26T18:55:55.753Z,63.13
2018-12-26T18:58:23.255Z,64.60
2018-12-26T19:00:50.799Z,63.29
2018-12-26T19:03:18.316Z,63.52
2018-12-26T19:05:45.891Z,62.94
2018-12-26T19:08:13.506Z,63.36
2018-12-26T19:10:41.132Z,64.17
2018-12-26T19:13:08.602Z,66.72
2018-12-26T19:15:36.984Z,63.86
2018-12-26T19:18:04.523Z,64.24
2018-12-26T19:20:31.971Z,62.13
2018-12-26T19:22:59.724Z,62.70
2018-12-26T19:25:27.441Z,64.73
2018-12-26T19:27:55.075Z,62.07
2018-12-26T19:30:22.553Z,63.13
2018-12-26T19:32:50.138Z,61.60
2018-12-26T19:35:17.861Z,62.61
2018-12-26T19:37:45.373Z,65.95
2018-12-26T19:40:12.876Z,63.75
2018-12-26T19:42:40.329Z,62.31
2018-12-26T19:45:08.571Z,63.59
2018-12-26T19:47:36.098Z,61.80
2018-12-26T19:50:05.246Z,62.97
2018-12-26T19:52:33.448Z,61.30
2018-12-26T19:55:00.914Z,60.98
2018-12-26T19:57:28.479Z,62.30
2018-12-26T19:59:55.896Z,60.40
2018-12-26T20:02:23.625Z,61.70
2018-12-26T20:04:52.968Z,61.85
2018-12-26T20:07:20.537Z,60.36
2018-12-26T20:09:48.241Z,64.15
2018-12-26T20:12:15.708Z,61.81
2018-12-26T20:14:43.189Z,59.99
2018-12-26T20:17:10.682Z,62.39
2018-12-26T20:19:38.129Z,59.31
2018-12-26T20:22:05.605Z,60.00
2018-12-26T20:24:33.127Z,59.16
2018-12-26T20:27:00.571Z,59.76
2018-12-26T20:29:28.273Z,60.44
2018-12-26T20:31:57.035Z,60.14
2018-12-26T20:34:25.462Z,61.64
2018-12-26T20:36:52.933Z,60.74
2018-12-26T20:39:20.390Z,59.20
2018-12-26T20:41:47.853Z,59.94
2018-12-26T20:44:15.362Z,60.01
2018-12-26T20:46:42.847Z,61.26
2018-12-26T20:49:10.378Z,60.37
2018-12-26T20:51:37.809Z,60.74
2018-12-26T20:54:05.305Z,60.18
2018-12-26T20:56:32.762Z,60.06
2018-12-26T20:59:00.305Z,60.15
2018-12-26T21:01:27.802Z,62.19
2018-12-26T21:03:55.332Z,62.98
2018-12-26T21:06:22.824Z,60.21
2018-12-26T21:08:50.306Z,59.97
2018-12-26T21:11:17.919Z,62.43
2018-12-26T21:13:45.431Z,60.37
2018-12-26T21:16:12.845Z,60.44
2018-12-26T21:18:40.330Z,61.00
2018-12-26T21:21:07.787Z,60.83
2018-12-26T21:23:35.320Z,60.79
2018-12-26T21:26:02.706Z,60.76
2018-12-26T21:28:30.230Z,61.20
2018-12-26T21:30:57.844Z,60.69
2018-12-26T21:33:25.446Z,60.87
2018-12-26T21:36:04.241Z,62.26
2018-12-26T21:38:31.847Z,60.48
2018-12-26T21:40:59.308Z,61.25
2018-12-26T21:43:26.783Z,61.00
2018-12-26T21:45:54.232Z,61.60
2018-12-26T21:48:21.622Z,61.54
2018-12-26T21:50:49.089Z,61.59
2018-12-26T21:53:16.866Z,60.72
2018-12-26T21:55:44.288Z,61.21
2018-12-26T21:58:11.714Z,60.41
2018-12-26T22:00:39.272Z,60.61
2018-12-26T22:03:06.756Z,60.50
2018-12-26T22:05:34.105Z,60.38
2018-12-26T22:08:01.594Z,60.73
2018-12-26T22:10:29.049Z,61.17
2018-12-26T22:12:56.490Z,61.79
2018-12-26T22:15:23.929Z,60.09
2018-12-26T22:17:51.417Z,60.58
2018-12-26T22:20:18.859Z,60.90
2018-12-26T22:22:46.299Z,59.81
2018-12-26T22:25:13.768Z,60.88
2018-12-26T22:27:41.219Z,60.38
2018-12-26T22:30:10.278Z,59.62
2018-12-26T22:32:37.821Z,60.83
2018-12-26T22:35:05.328Z,60.59
2018-12-26T22:37:32.794Z,60.80
2018-12-26T22:42:40.781Z,61.22
2018-12-26T22:45:08.530Z,61.54
2018-12-26T22:47:36.138Z,61.57
2018-12-26T22:50:04.645Z,61.11
2018-12-26T22:52:32.200Z,60.37
2018-12-26T22:54:59.593Z,60.39
2018-12-26T22:57:27.276Z,62.25
2018-12-26T23:02:38.944Z,59.59
2018-12-26T23:05:06.088Z,59.56
2018-12-26T23:07:33.567Z,59.61
2018-12-26T23:10:01.148Z,59.48
2018-12-26T23:12:28.556Z,59.27
2018-12-26T23:14:55.988Z,59.00
2018-12-26T23:17:23.472Z,58.64
2018-12-26T23:19:50.891Z,58.81
2018-12-26T23:22:18.351Z,58.76
2018-12-26T23:24:45.804Z,58.09
2018-12-26T23:27:13.341Z,57.93
2018-12-26T23:29:40.838Z,57.62
2018-12-26T23:32:08.241Z,57.78
2018-12-26T23:34:35.746Z,57.55
2018-12-26T23:37:03.232Z,57.85
2018-12-26T23:39:30.626Z,57.33
2018-12-26T23:41:58.136Z,59.18
2018-12-26T23:44:25.721Z,58.47
2018-12-26T23:46:53.275Z,57.67
2018-12-26T23:49:20.730Z,57.55
2018-12-26T23:51:48.231Z,58.71
2018-12-26T23:54:15.700Z,58.16
2018-12-26T23:56:43.288Z,57.88
2018-12-26T23:59:10.677Z,57.29
